^^
Saratoga-Weather Station Historical Data
Daily Summary for April 05, 2021 Units:  Metric    English   Both
Daily Weekly Monthly Yearly Custom
  High: Low: Average:
Temperature: 8.1 °C 0.2 °C 4.2 °C
Dew Point: 4.6 °C -6.9 °C 0.6 °C
Humidity: 92% 46% 78%
Wind Speed: 24.1km/h 0km/h 6.9km/h
Wind Gust: 30.6km/h - -
Wind- - West
Pressure: 1016.6 hPa 1009.1 hPa -
Precipitation: 2.3 mm    
Historical Graphs
 
 
Tabular Data for April 05, 2021
Time Temperature Dew Point Pressure Wind Wind Speed Wind Gust Humidity Rainfall Rate (Hourly) solar
00:02 8.1 °C 3.4 °C 1016.6 hPa West 6.4 km/h 8 km/h 72% 0.0 mm 0 W/m2
00:07 7.9 °C 3.4 °C 1016.6 hPa West 3.2 km/h 16.1 km/h 73% 0.0 mm 0 W/m2
00:12 7.8 °C 3.3 °C 1016.3 hPa WNW 4.7 km/h 4.8 km/h 73% 0.0 mm 0 W/m2
00:17 7.7 °C 3.2 °C 1016.3 hPa WSW 1.4 km/h 6.4 km/h 73% 0.0 mm 0 W/m2
00:22 7.7 °C 3.4 °C 1016.3 hPa West 4.7 km/h 6.4 km/h 74% 0.0 mm 0 W/m2
00:27 7.6 °C 3.3 °C 1016.3 hPa Calm   3.2 km/h 74% 0.0 mm 0 W/m2
00:32 7.4 °C 3.1 °C 1016.3 hPa WSW 4.7 km/h 4.8 km/h 74% 0.0 mm 0 W/m2
00:37 7.3 °C 3.2 °C 1016.3 hPa WNW 1.4 km/h 6.4 km/h 75% 0.0 mm 0 W/m2
00:42 7.3 °C 3.2 °C 1015.9 hPa NW 3.2 km/h 4.8 km/h 75% 0.0 mm 0 W/m2
00:47 7.2 °C 3.1 °C 1015.9 hPa Calm   6.4 km/h 75% 0.0 mm 0 W/m2
00:52 7.1 °C 3.2 °C 1015.9 hPa NW 1.4 km/h 3.2 km/h 76% 0.0 mm 0 W/m2
00:57 7 °C 3.1 °C 1015.9 hPa West 4.7 km/h 8 km/h 76% 0.0 mm 0 W/m2
01:02 6.9 °C 3 °C 1015.6 hPa WNW 3.2 km/h 4.8 km/h 76% 0.0 mm 0 W/m2
01:07 6.9 °C 3.1 °C 1015.6 hPa WNW 1.4 km/h 3.2 km/h 77% 0.0 mm 0 W/m2
01:12 6.8 °C 3.1 °C 1015.6 hPa NNW 3.2 km/h 4.8 km/h 77% 0.0 mm 0 W/m2
01:17 6.8 °C 3.1 °C 1015.6 hPa WNW 3.2 km/h 6.4 km/h 77% 0.0 mm 0 W/m2
01:22 6.7 °C 3 °C 1015.6 hPa Calm   1.6 km/h 77% 0.0 mm 0 W/m2
01:27 6.5 °C 2.8 °C 1015.6 hPa Calm   1.6 km/h 77% 0.0 mm 0 W/m2
01:32 6.3 °C 2.6 °C 1015.6 hPa NW 1.4 km/h 1.6 km/h 77% 0.0 mm 0 W/m2
01:37 6.1 °C 2.6 °C 1015.6 hPa West 3.2 km/h 3.2 km/h 78% 0.0 mm 0 W/m2
01:42 5.9 °C 2.5 °C 1015.6 hPa NW 3.2 km/h 4.8 km/h 79% 0.0 mm 0 W/m2
01:47 5.9 °C 2.7 °C 1015.6 hPa Calm   3.2 km/h 80% 0.0 mm 0 W/m2
01:53 5.9 °C 2.7 °C 1015.6 hPa Calm   3.2 km/h 80% 0.0 mm 0 W/m2
01:58 5.9 °C 2.7 °C 1015.6 hPa Calm   4.8 km/h 80% 0.0 mm 0 W/m2
02:03 5.8 °C 2.6 °C 1015.6 hPa Calm     80% 0.0 mm 0 W/m2
02:08 5.7 °C 2.5 °C 1015.6 hPa NW 1.4 km/h 3.2 km/h 80% 0.0 mm 0 W/m2
02:13 5.6 °C 2.6 °C 1015.6 hPa Calm   1.6 km/h 81% 0.0 mm 0 W/m2
02:18 5.5 °C 2.3 °C 1015.2 hPa SE 3.2 km/h 4.8 km/h 80% 0.0 mm 0 W/m2
02:23 5.4 °C 2.4 °C 1015.2 hPa WNW 1.4 km/h 11.3 km/h 81% 0.0 mm 0 W/m2
02:28 5.4 °C 2.4 °C 1015.2 hPa Calm   4.8 km/h 81% 0.0 mm 0 W/m2
02:33 5.3 °C 2.3 °C 1014.9 hPa NW 1.4 km/h 11.3 km/h 81% 0.0 mm 0 W/m2
02:38 5.3 °C 2.3 °C 1014.9 hPa Calm   3.2 km/h 81% 0.0 mm 0 W/m2
02:43 5.1 °C 2.3 °C 1014.9 hPa WSW 1.4 km/h 6.4 km/h 82% 0.0 mm 0 W/m2
02:48 5 °C 2.2 °C 1014.9 hPa West 1.4 km/h 6.4 km/h 82% 0.0 mm 0 W/m2
02:53 4.9 °C 2.3 °C 1014.9 hPa Calm   4.8 km/h 83% 0.0 mm 0 W/m2
02:58 4.8 °C 2 °C 1014.6 hPa Calm   6.4 km/h 82% 0.0 mm 0 W/m2
03:03 4.7 °C 1.9 °C 1014.6 hPa Calm   3.2 km/h 82% 0.0 mm 0 W/m2
03:08 4.6 °C 2 °C 1014.6 hPa Calm   3.2 km/h 83% 0.0 mm 0 W/m2
03:13 4.5 °C 1.9 °C 1014.6 hPa West 4.7 km/h 6.4 km/h 83% 0.0 mm 0 W/m2
03:18 4.5 °C 2 °C 1014.6 hPa SSW 3.2 km/h 6.4 km/h 84% 0.0 mm 0 W/m2
03:23 4.5 °C 2 °C 1014.2 hPa Calm   3.2 km/h 84% 0.0 mm 0 W/m2
03:28 4.4 °C 1.9 °C 1014.2 hPa WSW 3.2 km/h 12.9 km/h 84% 0.0 mm 0 W/m2
03:33 4.5 °C 2 °C 1014.2 hPa Calm   3.2 km/h 84% 0.0 mm 0 W/m2
03:38 4.4 °C 1.9 °C 1014.2 hPa WSW 4.7 km/h 11.3 km/h 84% 0.0 mm 0 W/m2
03:43 4.4 °C 1.9 °C 1014.2 hPa WNW 3.2 km/h 4.8 km/h 84% 0.0 mm 0 W/m2
03:48 4.4 °C 1.9 °C 1014.2 hPa SW 4.7 km/h 12.9 km/h 84% 0.0 mm 0 W/m2
03:53 4.4 °C 1.9 °C 1013.9 hPa WSW 3.2 km/h 6.4 km/h 84% 0.0 mm 0 W/m2
03:58 4.4 °C 1.9 °C 1013.9 hPa SSW 7.9 km/h 12.9 km/h 84% 0.0 mm 0 W/m2
04:03 4.4 °C 1.9 °C 1013.5 hPa West 6.4 km/h 9.7 km/h 84% 0.0 mm 0 W/m2
04:08 4.4 °C 1.9 °C 1013.5 hPa West 1.4 km/h 4.8 km/h 84% 0.0 mm 0 W/m2
04:13 4.4 °C 1.9 °C 1013.5 hPa West 4.7 km/h 11.3 km/h 84% 0.0 mm 0 W/m2
04:18 4.3 °C 1.8 °C 1013.5 hPa WSW 1.4 km/h 11.3 km/h 84% 0.0 mm 0 W/m2
04:23 4.3 °C 1.8 °C 1013.5 hPa WSW 6.4 km/h 11.3 km/h 84% 0.0 mm 0 W/m2
04:28 4.3 °C 1.8 °C 1013.5 hPa West 11.1 km/h 12.9 km/h 84% 0.0 mm 0 W/m2
04:33 4.2 °C 1.7 °C 1013.2 hPa WSW 6.4 km/h 9.7 km/h 84% 0.0 mm 0 W/m2
04:38 4.2 °C 1.7 °C 1013.2 hPa West 1.4 km/h 12.9 km/h 84% 0.0 mm 0 W/m2
04:43 4.1 °C 1.8 °C 1013.2 hPa WNW 6.4 km/h 12.9 km/h 85% 0.0 mm 0 W/m2
04:48 4.1 °C 1.8 °C 1012.9 hPa West 1.4 km/h 9.7 km/h 85% 0.0 mm 0 W/m2
04:53 4 °C 1.7 °C 1012.9 hPa WNW 1.4 km/h 1.6 km/h 85% 0.0 mm 0 W/m2
04:58 3.9 °C 1.6 °C 1012.9 hPa WNW 4.7 km/h 12.9 km/h 85% 0.0 mm 0 W/m2
05:03 3.9 °C 1.6 °C 1012.9 hPa NW 1.4 km/h 8 km/h 85% 0.0 mm 0 W/m2
05:08 3.9 °C 1.6 °C 1012.9 hPa WSW 3.2 km/h 6.4 km/h 85% 0.0 mm 0 W/m2
05:13 3.8 °C 1.5 °C 1012.9 hPa WNW 4.7 km/h 12.9 km/h 85% 0.0 mm 0 W/m2
05:18 3.9 °C 1.8 °C 1012.9 hPa NW 6.4 km/h 14.5 km/h 86% 0.0 mm 0 W/m2
05:23 3.9 °C 1.6 °C 1012.5 hPa West 4.7 km/h 11.3 km/h 85% 0.0 mm 0 W/m2
05:28 4 °C 1.7 °C 1012.5 hPa WSW 4.7 km/h 8 km/h 85% 0.0 mm 0 W/m2
05:33 4 °C 1.7 °C 1012.5 hPa West 3.2 km/h 6.4 km/h 85% 0.0 mm 0 W/m2
05:38 4.1 °C 1.8 °C 1012.5 hPa West 4.7 km/h 9.7 km/h 85% 0.0 mm 0 W/m2
05:43 4.1 °C 1.8 °C 1012.5 hPa WSW 7.9 km/h 12.9 km/h 85% 0.0 mm 0 W/m2
05:48 4.1 °C 1.8 °C 1012.5 hPa West 16.3 km/h 16.1 km/h 85% 0.0 mm 0 W/m2
05:53 4 °C 1.7 °C 1012.2 hPa WSW 13 km/h 14.5 km/h 85% 0.0 mm 0 W/m2
05:58 3.9 °C 1.6 °C 1012.2 hPa West 6.4 km/h 9.7 km/h 85% 0.0 mm 0 W/m2
06:03 4 °C 1.7 °C 1011.9 hPa WNW 11.1 km/h 20.9 km/h 85% 0.0 mm 0 W/m2
06:08 4 °C 1.7 °C 1011.9 hPa West 11.1 km/h 16.1 km/h 85% 0.0 mm 0 W/m2
06:13 4 °C 1.7 °C 1011.9 hPa NNW 6.4 km/h 12.9 km/h 85% 0.0 mm 0 W/m2
06:18 4 °C 1.7 °C 1011.9 hPa WNW 13 km/h 20.9 km/h 85% 0.0 mm 0 W/m2
06:23 4 °C 1.7 °C 1011.9 hPa NW 16.3 km/h 16.1 km/h 85% 0.0 mm 0 W/m2
06:28 3.9 °C 1.6 °C 1011.9 hPa NW 3.2 km/h 12.9 km/h 85% 0.0 mm 0 W/m2
06:33 3.9 °C 1.8 °C 1011.5 hPa West 4.7 km/h 19.3 km/h 86% 0.0 mm 0 W/m2
06:38 3.9 °C 1.8 °C 1011.2 hPa NW 7.9 km/h 19.3 km/h 86% 0.0 mm 0 W/m2
06:43 3.9 °C 1.8 °C 1011.2 hPa WNW 13 km/h 14.5 km/h 86% 0.0 mm 0 W/m2
06:48 3.9 °C 1.8 °C 1011.2 hPa NW 3.2 km/h 19.3 km/h 86% 0.0 mm 0 W/m2
06:53 3.9 °C 1.8 °C 1011.5 hPa NW 3.2 km/h 9.7 km/h 86% 0.0 mm 0 W/m2
06:58 3.9 °C 1.8 °C 1011.5 hPa NW 14.3 km/h 19.3 km/h 86% 0.0 mm 0 W/m2
07:03 3.9 °C 1.8 °C 1011.5 hPa NNW 4.7 km/h 11.3 km/h 86% 0.0 mm 0 W/m2
07:08 3.8 °C 1.7 °C 1011.5 hPa WNW 4.7 km/h 16.1 km/h 86% 0.0 mm 0 W/m2
07:13 3.8 °C 1.7 °C 1011.5 hPa NW 1.4 km/h 8 km/h 86% 0.0 mm 5 W/m2
07:18 3.8 °C 1.7 °C 1011.2 hPa WSW 4.7 km/h 4.8 km/h 86% 0.0 mm 7 W/m2
07:23 3.7 °C 1.6 °C 1011.2 hPa NW 4.7 km/h 8 km/h 86% 0.0 mm 11 W/m2
07:28 3.7 °C 1.7 °C 1010.8 hPa WNW 6.4 km/h 12.9 km/h 87% 0.0 mm 14 W/m2
07:33 3.6 °C 1.6 °C 1010.8 hPa NW 7.9 km/h 11.3 km/h 87% 0.0 mm 18 W/m2
07:38 3.6 °C 1.6 °C 1010.8 hPa North 1.4 km/h 6.4 km/h 87% 0.0 mm 23 W/m2
07:43 3.7 °C 1.7 °C 1010.8 hPa NNW 9.7 km/h 9.7 km/h 87% 0.0 mm 30 W/m2
07:48 3.7 °C 1.7 °C 1010.8 hPa NW 4.7 km/h 16.1 km/h 87% 0.0 mm 33 W/m2
07:53 3.7 °C 1.7 °C 1010.8 hPa WNW 4.7 km/h 11.3 km/h 87% 0.0 mm 39 W/m2
07:58 3.7 °C 1.7 °C 1010.8 hPa WNW 3.2 km/h 14.5 km/h 87% 0.0 mm 44 W/m2
08:03 3.7 °C 1.7 °C 1010.5 hPa NNW 6.4 km/h 9.7 km/h 87% 0.0 mm 54 W/m2
08:08 3.7 °C 1.7 °C 1010.5 hPa WSW 1.4 km/h 11.3 km/h 87% 0.0 mm 63 W/m2
08:13 3.8 °C 1.8 °C 1010.5 hPa West 4.7 km/h 16.1 km/h 87% 0.0 mm 72 W/m2
08:18 3.8 °C 1.8 °C 1010.5 hPa WNW 4.7 km/h 9.7 km/h 87% 0.0 mm 74 W/m2
08:23 3.8 °C 1.8 °C 1010.2 hPa West 1.4 km/h 16.1 km/h 87% 0.0 mm 79 W/m2
08:28 3.9 °C 1.9 °C 1010.2 hPa WNW 1.4 km/h 11.3 km/h 87% 0.0 mm 81 W/m2
08:33 4 °C 2 °C 1010.2 hPa WNW 4.7 km/h 14.5 km/h 87% 0.0 mm 86 W/m2
08:38 4.1 °C 2.1 °C 1010.2 hPa NNW 7.9 km/h 17.7 km/h 87% 0.0 mm 98 W/m2
08:43 4.1 °C 2.1 °C 1010.2 hPa WNW 6.4 km/h 14.5 km/h 87% 0.0 mm 109 W/m2
08:48 4.2 °C 2.1 °C 1010.2 hPa NW 6.4 km/h 12.9 km/h 86% 0.0 mm 118 W/m2
08:53 4.2 °C 2.1 °C 1010.2 hPa WNW 3.2 km/h 4.8 km/h 86% 0.0 mm 153 W/m2
08:58 4.3 °C 2.2 °C 1010.2 hPa NNW 7.9 km/h 12.9 km/h 86% 0.0 mm 144 W/m2
09:03 4.5 °C 2.4 °C 1010.5 hPa WNW 3.2 km/h 8 km/h 86% 0.0 mm 149 W/m2
09:08 4.6 °C 2.5 °C 1010.2 hPa NW 6.4 km/h 14.5 km/h 86% 0.0 mm 121 W/m2
09:13 4.7 °C 2.4 °C 1010.2 hPa NW 6.4 km/h 17.7 km/h 85% 0.0 mm 132 W/m2
09:18 4.7 °C 2.4 °C 1010.2 hPa NNE 7.9 km/h 14.5 km/h 85% 0.0 mm 144 W/m2
09:23 4.8 °C 2.5 °C 1010.2 hPa WNW 7.9 km/h 11.3 km/h 85% 0.0 mm 167 W/m2
09:28 4.9 °C 2.6 °C 1010.2 hPa WNW 11.1 km/h 12.9 km/h 85% 0.0 mm 105 W/m2
09:33 4.9 °C 2.4 °C 1010.2 hPa NW 6.4 km/h 14.5 km/h 84% 0.0 mm 86 W/m2
09:38 4.9 °C 2.4 °C 1010.5 hPa WSW 14.3 km/h 16.1 km/h 84% 0.0 mm 70 W/m2
09:43 4.8 °C 2.3 °C 1010.5 hPa WNW 11.1 km/h 20.9 km/h 84% 0.0 mm 44 W/m2
09:48 4.7 °C 2.4 °C 1010.5 hPa WSW 6.4 km/h 11.3 km/h 85% 0.0 mm 46 W/m2
09:53 4.7 °C 2.4 °C 1010.5 hPa WSW 22.7 km/h 27.4 km/h 85% 0.0 mm 76 W/m2
09:58 4.7 °C 2.4 °C 1010.5 hPa West 6.4 km/h 22.5 km/h 85% 0.0 mm 70 W/m2
10:03 4.6 °C 2.3 °C 1010.8 hPa West 24.1 km/h 24.1 km/h 85% 0.0 mm 42 W/m2
10:08 4.3 °C 2.2 °C 1010.8 hPa West 17.7 km/h 24.1 km/h 86% 0.0 mm 44 W/m2
10:13 4.2 °C 2.2 °C 1010.8 hPa WSW 7.9 km/h 20.9 km/h 87% 0.0 mm 65 W/m2
10:18 4.1 °C 2.1 °C 1010.5 hPa WNW 4.7 km/h 20.9 km/h 87% 0.0 mm 98 W/m2
10:23 4.1 °C 2.3 °C 1010.5 hPa West 11.1 km/h 19.3 km/h 88% 0.0 mm 151 W/m2
10:28 4.2 °C 2.4 °C 1010.5 hPa West 13 km/h 17.7 km/h 88% 0.0 mm 132 W/m2
10:33 4.2 °C 2.4 °C 1010.5 hPa WNW 4.7 km/h 19.3 km/h 88% 0.0 mm 158 W/m2
10:38 4.3 °C 2.5 °C 1010.5 hPa WNW 16.3 km/h 20.9 km/h 88% 0.0 mm 163 W/m2
10:43 4.3 °C 2.5 °C 1010.5 hPa WSW 6.4 km/h 12.9 km/h 88% 0.0 mm 169 W/m2
10:48 4.4 °C 2.6 °C 1010.5 hPa WNW 13 km/h 19.3 km/h 88% 0.0 mm 142 W/m2
10:53 4.4 °C 2.6 °C 1010.2 hPa WNW 6.4 km/h 12.9 km/h 88% 0.0 mm 181 W/m2
10:58 4.6 °C 2.9 °C 1010.2 hPa WNW 1.4 km/h 12.9 km/h 89% 0.0 mm 165 W/m2
11:03 4.7 °C 3 °C 1010.2 hPa West 6.4 km/h 6.4 km/h 89% 0.0 mm 151 W/m2
11:08 4.7 °C 3 °C 1010.2 hPa WNW 6.4 km/h 12.9 km/h 89% 0.0 mm 128 W/m2
11:13 4.8 °C 3 °C 1010.2 hPa West 13 km/h 19.3 km/h 88% 0.0 mm 118 W/m2
11:18 4.8 °C 3.1 °C 1010.2 hPa WNW 6.4 km/h 14.5 km/h 89% 0.0 mm 81 W/m2
11:24 4.8 °C 3 °C 1010.2 hPa NW 4.7 km/h 14.5 km/h 88% 0.0 mm 72 W/m2
11:29 4.8 °C 3.1 °C 1009.8 hPa West 13 km/h 17.7 km/h 89% 0.0 mm 93 W/m2
11:34 4.8 °C 3.1 °C 1010.2 hPa WNW 9.7 km/h 14.5 km/h 89% 0.0 mm 113 W/m2
11:39 4.9 °C 3.2 °C 1009.8 hPa West 11.1 km/h 19.3 km/h 89% 0.0 mm 151 W/m2
11:44 5 °C 3.3 °C 1009.8 hPa SW 3.2 km/h 6.4 km/h 89% 0.0 mm 214 W/m2
11:49 5.2 °C 3.5 °C 1009.8 hPa WSW 1.4 km/h 19.3 km/h 89% 0.0 mm 155 W/m2
11:54 5.2 °C 3.4 °C 1009.8 hPa NW 1.4 km/h 8 km/h 88% 0.0 mm 137 W/m2
11:59 5.3 °C 3.5 °C 1009.8 hPa WSW 3.2 km/h 11.3 km/h 88% 0.0 mm 139 W/m2
12:04 5.3 °C 3.5 °C 1009.8 hPa West 11.1 km/h 12.9 km/h 88% 0.0 mm 123 W/m2
12:09 5.4 °C 3.6 °C 1009.8 hPa West 11.1 km/h 16.1 km/h 88% 0.0 mm 202 W/m2
12:14 5.6 °C 3.8 °C 1009.8 hPa NW 4.7 km/h 17.7 km/h 88% 0.0 mm 148 W/m2
12:19 5.7 °C 3.9 °C 1009.8 hPa West 6.4 km/h 16.1 km/h 88% 0.0 mm 81 W/m2
12:24 5.6 °C 3.8 °C 1009.8 hPa WNW 9.7 km/h 16.1 km/h 88% 0.0 mm 97 W/m2
12:29 5.6 °C 3.8 °C 1009.8 hPa West 11.1 km/h 14.5 km/h 88% 0.0 mm 93 W/m2
12:34 5.6 °C 3.8 °C 1009.8 hPa WNW 9.7 km/h 25.7 km/h 88% 0.0 mm 81 W/m2
12:39 5.6 °C 3.9 °C 1009.8 hPa West 13 km/h 14.5 km/h 89% 0.0 mm 58 W/m2
12:44 5.6 °C 4.1 °C 1009.8 hPa West 13 km/h 25.7 km/h 90% 0.0 mm 54 W/m2
12:49 5.6 °C 4.1 °C 1009.8 hPa West 6.4 km/h 14.5 km/h 90% 0.0 mm 58 W/m2
12:54 5.6 °C 4.2 °C 1009.8 hPa WNW 17.7 km/h 17.7 km/h 91% 0.0 mm 42 W/m2
12:59 5.6 °C 4.2 °C 1009.8 hPa West 6.4 km/h 19.3 km/h 91% 0.0 mm 40 W/m2
13:04 5.6 °C 4.2 °C 1009.8 hPa West 4.7 km/h 19.3 km/h 91% 0.0 mm 32 W/m2
13:09 5.5 °C 4.1 °C 1009.8 hPa West 6.4 km/h 17.7 km/h 91% 0.0 mm 53 W/m2
13:14 5.5 °C 4.1 °C 1009.8 hPa WNW 7.9 km/h 14.5 km/h 91% 0.0 mm 86 W/m2
13:19 5.5 °C 4.3 °C 1009.8 hPa West 4.7 km/h 11.3 km/h 92% 0.0 mm 105 W/m2
13:24 5.6 °C 4.4 °C 1009.5 hPa West 13 km/h 17.7 km/h 92% 0.0 mm 146 W/m2
13:29 5.6 °C 4.4 °C 1009.5 hPa WNW 11.1 km/h 14.5 km/h 92% 0.0 mm 123 W/m2
13:34 5.6 °C 4.4 °C 1009.5 hPa West 9.7 km/h 19.3 km/h 92% 0.0 mm 139 W/m2
13:39 5.7 °C 4.5 °C 1009.5 hPa WNW 14.3 km/h 20.9 km/h 92% 0.0 mm 77 W/m2
13:44 5.7 °C 4.3 °C 1009.5 hPa WNW 11.1 km/h 16.1 km/h 91% 0.0 mm 95 W/m2
13:49 5.7 °C 4.5 °C 1009.1 hPa WSW 7.9 km/h 20.9 km/h 92% 0.2 mm 86 W/m2
13:54 5.7 °C 4.5 °C 1009.1 hPa West 4.7 km/h 6.4 km/h 92% 0.2 mm 69 W/m2
13:59 5.8 °C 4.6 °C 1009.1 hPa WNW 4.7 km/h 14.5 km/h 92% 0.5 mm 67 W/m2
14:04 5.8 °C 4.6 °C 1009.5 hPa West 9.7 km/h 14.5 km/h 92% 0.5 mm 90 W/m2
14:09 5.8 °C 4.6 °C 1009.5 hPa West 14.3 km/h 17.7 km/h 92% 0.8 mm 111 W/m2
14:14 5.8 °C 4.6 °C 1009.5 hPa NW 6.4 km/h 14.5 km/h 92% 1.0 mm 69 W/m2
14:19 5.8 °C 4.6 °C 1009.8 hPa WNW 6.4 km/h 16.1 km/h 92% 1.3 mm 46 W/m2
14:24 5.8 °C 4.6 °C 1009.8 hPa WNW 9.7 km/h 20.9 km/h 92% 1.5 mm 28 W/m2
14:29 5.7 °C 4.3 °C 1009.8 hPa North 7.9 km/h 14.5 km/h 91% 2.3 mm 56 W/m2
14:34 5.6 °C 4.2 °C 1009.8 hPa NW 4.7 km/h 11.3 km/h 91% 2.3 mm 83 W/m2
14:39 5.6 °C 4.2 °C 1009.8 hPa WNW 11.1 km/h 19.3 km/h 91% 2.3 mm 70 W/m2
14:44 5.5 °C 4 °C 1010.2 hPa West 6.4 km/h 17.7 km/h 90% 2.3 mm 91 W/m2
14:49 5.3 °C 3.6 °C 1010.2 hPa West 11.1 km/h 30.6 km/h 89% 2.0 mm 107 W/m2
14:54 5.2 °C 3.5 °C 1010.2 hPa WNW 13 km/h 19.3 km/h 89% 2.3 mm 60 W/m2
14:59 5 °C 3.3 °C 1010.5 hPa North 16.3 km/h 30.6 km/h 89% 2.0 mm 123 W/m2
15:04 4.7 °C 2.9 °C 1010.5 hPa WNW 6.4 km/h 20.9 km/h 88% 1.8 mm 142 W/m2
15:09 4.6 °C 2.8 °C 1010.8 hPa West 11.1 km/h 20.9 km/h 88% 1.5 mm 127 W/m2
15:14 4.5 °C 2.7 °C 1010.8 hPa West 4.7 km/h 17.7 km/h 88% 1.5 mm 120 W/m2
15:19 4.4 °C 2.6 °C 1010.8 hPa WNW 6.4 km/h 29 km/h 88% 1.3 mm 109 W/m2
15:24 4.4 °C 2.6 °C 1010.8 hPa WNW 7.9 km/h 14.5 km/h 88% 0.8 mm 125 W/m2
15:29 4.3 °C 1.8 °C 1010.8 hPa WNW 13 km/h 29 km/h 84% 0.2 mm 153 W/m2
15:34 4.3 °C 1.7 °C 1010.8 hPa West 11.1 km/h 22.5 km/h 83% 0.2 mm 158 W/m2
15:39 4.3 °C 1.7 °C 1011.2 hPa WNW 4.7 km/h 19.3 km/h 83% 0.2 mm 148 W/m2
15:44 4.3 °C 1.7 °C 1011.2 hPa West 9.7 km/h 22.5 km/h 83% 0.2 mm 139 W/m2
15:49 4.3 °C 1.5 °C 1011.2 hPa WNW 7.9 km/h 16.1 km/h 82% 0.2 mm 127 W/m2
15:54 4.3 °C 1.5 °C 1011.2 hPa West 11.1 km/h 16.1 km/h 82% 0.0 mm 120 W/m2
15:59 4.3 °C 1.3 °C 1011.5 hPa West 9.7 km/h 12.9 km/h 81% 0.0 mm 98 W/m2
16:04 4.2 °C 1.1 °C 1011.5 hPa West 6.4 km/h 17.7 km/h 80% 0.0 mm 79 W/m2
16:09 4.1 °C 1 °C 1011.5 hPa North 7.9 km/h 17.7 km/h 80% 0.0 mm 93 W/m2
16:14 4 °C 1 °C 1011.9 hPa WNW 14.3 km/h 19.3 km/h 81% 0.0 mm 65 W/m2
16:19 3.8 °C 0.7 °C 1011.9 hPa West 13 km/h 19.3 km/h 80% 0.0 mm 74 W/m2
16:24 3.7 °C 0.2 °C 1011.5 hPa NW 6.4 km/h 19.3 km/h 78% 0.0 mm 72 W/m2
16:29 3.7 °C 0.4 °C 1011.9 hPa WNW 3.2 km/h 14.5 km/h 79% 0.0 mm 79 W/m2
16:34 3.7 °C 0.6 °C 1011.5 hPa WNW 6.4 km/h 20.9 km/h 80% 0.0 mm 118 W/m2
16:39 3.7 °C 0.4 °C 1011.9 hPa West 9.7 km/h 17.7 km/h 79% 0.0 mm 104 W/m2
16:44 3.7 °C 0.2 °C 1011.9 hPa WNW 6.4 km/h 20.9 km/h 78% 0.0 mm 90 W/m2
16:49 3.7 °C 0.4 °C 1011.9 hPa NW 17.7 km/h 17.7 km/h 79% 0.0 mm 97 W/m2
16:54 3.7 °C 0.2 °C 1011.9 hPa WNW 11.1 km/h 16.1 km/h 78% 0.0 mm 105 W/m2
16:59 3.7 °C 0.2 °C 1011.9 hPa WNW 6.4 km/h 12.9 km/h 78% 0.0 mm 128 W/m2
17:04 3.8 °C 0.1 °C 1011.9 hPa WNW 4.7 km/h 16.1 km/h 77% 0.0 mm 139 W/m2
17:09 3.8 °C -0.2 °C 1011.9 hPa West 6.4 km/h 19.3 km/h 75% 0.0 mm 146 W/m2
17:14 3.9 °C 0.1 °C 1011.9 hPa WNW 4.7 km/h 14.5 km/h 76% 0.0 mm 132 W/m2
17:19 4 °C 0.3 °C 1011.9 hPa WNW 11.1 km/h 19.3 km/h 77% 0.0 mm 134 W/m2
17:24 4.1 °C 0.4 °C 1011.9 hPa WNW 3.2 km/h 8 km/h 77% 0.0 mm 160 W/m2
17:29 4.2 °C 0 °C 1012.2 hPa West 11.1 km/h 14.5 km/h 74% 0.0 mm 86 W/m2
17:34 4.1 °C -0.3 °C 1012.2 hPa North 6.4 km/h 20.9 km/h 73% 0.0 mm 53 W/m2
17:39 4 °C -0.6 °C 1012.5 hPa NW 7.9 km/h 19.3 km/h 72% 0.0 mm 95 W/m2
17:44 3.9 °C -0.9 °C 1012.5 hPa WSW 11.1 km/h 16.1 km/h 71% 0.0 mm 95 W/m2
17:49 3.9 °C -1.7 °C 1012.5 hPa WNW 6.4 km/h 16.1 km/h 67% 0.0 mm 72 W/m2
17:54 3.9 °C -1.7 °C 1012.5 hPa West 9.7 km/h 20.9 km/h 67% 0.0 mm 104 W/m2
17:59 4 °C -1.4 °C 1012.5 hPa West 13 km/h 22.5 km/h 68% 0.0 mm 163 W/m2
18:04 4.2 °C -1.8 °C 1012.2 hPa West 17.7 km/h 19.3 km/h 65% 0.0 mm 345 W/m2
18:09 4.3 °C -1.7 °C 1012.5 hPa West 13 km/h 22.5 km/h 65% 0.0 mm 118 W/m2
18:14 4.2 °C -2.2 °C 1012.5 hPa WNW 11.1 km/h 20.9 km/h 63% 0.0 mm 158 W/m2
18:19 4.3 °C -2.1 °C 1012.5 hPa West 6.4 km/h 19.3 km/h 63% 0.0 mm 163 W/m2
18:24 4.4 °C -2.2 °C 1012.5 hPa NNW 14.3 km/h 20.9 km/h 62% 0.0 mm 179 W/m2
18:29 4.5 °C -2.2 °C 1012.5 hPa NW 7.9 km/h 22.5 km/h 62% 0.0 mm 174 W/m2
18:34 4.6 °C -1.8 °C 1012.9 hPa WNW 13 km/h 17.7 km/h 63% 0.0 mm 281 W/m2
18:39 4.7 °C -2 °C 1012.9 hPa NNE 14.3 km/h 22.5 km/h 62% 0.0 mm 251 W/m2
18:44 4.8 °C -2.8 °C 1012.9 hPa West 14.3 km/h 16.1 km/h 58% 0.0 mm 255 W/m2
18:49 4.8 °C -3.5 °C 1012.9 hPa WNW 13 km/h 14.5 km/h 55% 0.0 mm 221 W/m2
18:54 4.6 °C -3.9 °C 1013.2 hPa WNW 20.9 km/h 22.5 km/h 54% 0.0 mm 195 W/m2
18:59 4.4 °C -4.1 °C 1013.2 hPa West 9.7 km/h 20.9 km/h 54% 0.0 mm 174 W/m2
19:04 4.3 °C -4.2 °C 1013.2 hPa WNW 6.4 km/h 19.3 km/h 54% 0.0 mm 153 W/m2
19:09 4.3 °C -4.4 °C 1013.5 hPa West 13 km/h 19.3 km/h 53% 0.0 mm 134 W/m2
19:14 4.2 °C -5.6 °C 1013.5 hPa WSW 13 km/h 22.5 km/h 49% 0.0 mm 123 W/m2
19:19 4.1 °C -5.7 °C 1013.5 hPa WNW 11.1 km/h 17.7 km/h 49% 0.0 mm 97 W/m2
19:24 4.1 °C -5.9 °C 1013.5 hPa West 9.7 km/h 14.5 km/h 48% 0.0 mm 86 W/m2
19:29 4.1 °C -6.5 °C 1013.5 hPa West 16.3 km/h 16.1 km/h 46% 0.0 mm 35 W/m2
19:34 3.9 °C -6.7 °C 1013.5 hPa WSW 13 km/h 22.5 km/h 46% 0.0 mm 37 W/m2
19:39 3.8 °C -6.8 °C 1013.9 hPa West 11.1 km/h 17.7 km/h 46% 0.0 mm 25 W/m2
19:44 3.7 °C -6.9 °C 1013.9 hPa WNW 11.1 km/h 25.7 km/h 46% 0.0 mm 18 W/m2
19:49 3.6 °C -6.9 °C 1013.9 hPa WNW 7.9 km/h 12.9 km/h 46% 0.0 mm 16 W/m2
19:54 3.5 °C -6.8 °C 1014.2 hPa WNW 11.1 km/h 25.7 km/h 47% 0.0 mm 14 W/m2
19:59 3.4 °C -6.9 °C 1014.2 hPa West 9.7 km/h 9.7 km/h 47% 0.0 mm 12 W/m2
20:05 3.4 °C -6.9 °C 1014.2 hPa WNW 4.7 km/h 17.7 km/h 47% 0.0 mm 9 W/m2
20:10 3.3 °C -6.7 °C 1014.2 hPa WSW 6.4 km/h 12.9 km/h 48% 0.0 mm 7 W/m2
20:15 3.3 °C -6.4 °C 1014.2 hPa NW 4.7 km/h 9.7 km/h 49% 0.0 mm 5 W/m2
20:20 3.2 °C -6.5 °C 1014.6 hPa WNW 7.9 km/h 17.7 km/h 49% 0.0 mm 0 W/m2
20:25 3.2 °C -6.2 °C 1014.6 hPa NNW 4.7 km/h 19.3 km/h 50% 0.0 mm 0 W/m2
20:30 3.1 °C -6.1 °C 1014.6 hPa WNW 7.9 km/h 8 km/h 51% 0.0 mm 0 W/m2
20:35 2.9 °C -5.7 °C 1014.6 hPa WSW 4.7 km/h 19.3 km/h 53% 0.0 mm 0 W/m2
20:40 2.8 °C -5.8 °C 1014.9 hPa North 7.9 km/h 19.3 km/h 53% 0.0 mm 0 W/m2
20:45 2.8 °C -5.3 °C 1014.9 hPa NNW 4.7 km/h 20.9 km/h 55% 0.0 mm 0 W/m2
20:50 2.8 °C -5.1 °C 1015.2 hPa WNW 6.4 km/h 14.5 km/h 56% 0.0 mm 0 W/m2
20:55 2.7 °C -5 °C 1015.2 hPa NW 11.1 km/h 16.1 km/h 57% 0.0 mm 0 W/m2
21:00 2.7 °C -5 °C 1015.2 hPa NW 6.4 km/h 11.3 km/h 57% 0.0 mm 0 W/m2
21:05 2.6 °C -4.8 °C 1015.2 hPa West 11.1 km/h 17.7 km/h 58% 0.0 mm 0 W/m2
21:10 2.4 °C -5.3 °C 1015.6 hPa NW 9.7 km/h 20.9 km/h 57% 0.0 mm 0 W/m2
21:15 2.3 °C -5.1 °C 1015.6 hPa West 13 km/h 19.3 km/h 58% 0.0 mm 0 W/m2
21:20 2.2 °C -5.2 °C 1015.6 hPa WNW 4.7 km/h 17.7 km/h 58% 0.0 mm 0 W/m2
21:25 2.1 °C -5.1 °C 1015.9 hPa North 6.4 km/h 12.9 km/h 59% 0.0 mm 0 W/m2
21:30 2 °C -5 °C 1015.9 hPa NW 9.7 km/h 14.5 km/h 60% 0.0 mm 0 W/m2
21:35 1.9 °C -5 °C 1015.9 hPa NW 7.9 km/h 12.9 km/h 60% 0.0 mm 0 W/m2
21:40 1.8 °C -4.9 °C 1016.3 hPa WNW 4.7 km/h 14.5 km/h 61% 0.0 mm 0 W/m2
21:45 1.8 °C -4.9 °C 1016.3 hPa NW 1.4 km/h 8 km/h 61% 0.0 mm 0 W/m2
21:50 1.7 °C -4.8 °C 1016.3 hPa NW 9.7 km/h 9.7 km/h 62% 0.0 mm 0 W/m2
21:55 1.7 °C -4.8 °C 1016.3 hPa WSW 3.2 km/h 6.4 km/h 62% 0.0 mm 0 W/m2
22:00 1.6 °C -4.7 °C 1016.3 hPa NNW 7.9 km/h 12.9 km/h 63% 0.0 mm 0 W/m2
22:05 1.6 °C -4.7 °C 1016.3 hPa WNW 4.7 km/h 6.4 km/h 63% 0.0 mm 0 W/m2
22:10 1.4 °C -4.7 °C 1016.3 hPa Calm   6.4 km/h 64% 0.0 mm 0 W/m2
22:15 1.4 °C -4.7 °C 1016.6 hPa WNW 3.2 km/h 8 km/h 64% 0.0 mm 0 W/m2
22:20 1.3 °C -4.6 °C 1016.6 hPa West 4.7 km/h 8 km/h 65% 0.0 mm 0 W/m2
22:25 1.2 °C -4.4 °C 1016.3 hPa NW 4.7 km/h 6.4 km/h 66% 0.0 mm 0 W/m2
22:30 1.2 °C -4.2 °C 1016.3 hPa Calm   4.8 km/h 67% 0.0 mm 0 W/m2
22:35 1 °C -4.4 °C 1016.3 hPa West 1.4 km/h 3.2 km/h 67% 0.0 mm 0 W/m2
22:40 0.8 °C -4.4 °C 1016.6 hPa West 3.2 km/h 6.4 km/h 68% 0.0 mm 0 W/m2
22:45 0.6 °C -4.4 °C 1016.6 hPa WNW 3.2 km/h 4.8 km/h 69% 0.0 mm 0 W/m2
22:50 0.6 °C -4.4 °C 1016.6 hPa WSW 3.2 km/h 6.4 km/h 69% 0.0 mm 0 W/m2
22:55 0.5 °C -4.5 °C 1016.6 hPa Calm   6.4 km/h 69% 0.0 mm 0 W/m2
23:00 0.4 °C -4.4 °C 1016.6 hPa West 4.7 km/h 6.4 km/h 70% 0.0 mm 0 W/m2
23:05 0.4 °C -4.4 °C 1016.6 hPa WNW 3.2 km/h 4.8 km/h 70% 0.0 mm 0 W/m2
23:10 0.4 °C -4.4 °C 1016.6 hPa WSW 1.4 km/h 4.8 km/h 70% 0.0 mm 0 W/m2
23:15 0.3 °C -4.3 °C 1016.6 hPa West 4.7 km/h 12.9 km/h 71% 0.0 mm 0 W/m2
23:20 0.3 °C -4.3 °C 1016.6 hPa SW 7.9 km/h 9.7 km/h 71% 0.0 mm 0 W/m2
23:25 0.3 °C -4.2 °C 1016.6 hPa WNW 3.2 km/h 12.9 km/h 72% 0.0 mm 0 W/m2
23:30 0.3 °C -4 °C 1016.6 hPa SW 9.7 km/h 12.9 km/h 73% 0.0 mm 0 W/m2
23:35 0.3 °C -4 °C 1016.6 hPa West 9.7 km/h 11.3 km/h 73% 0.0 mm 0 W/m2
23:40 0.3 °C -3.8 °C 1016.6 hPa WSW 7.9 km/h 9.7 km/h 74% 0.0 mm 0 W/m2
23:45 0.3 °C -3.8 °C 1016.6 hPa WSW 4.7 km/h 9.7 km/h 74% 0.0 mm 0 W/m2
23:50 0.2 °C -3.7 °C 1016.6 hPa West 9.7 km/h 9.7 km/h 75% 0.0 mm 0 W/m2
23:55 0.2 °C -3.7 °C 1016.6 hPa NW 3.2 km/h 8 km/h 75% 0.0 mm 0 W/m2
Juneau County Weather
Compliments of Weather Underground - 4 mb